Time;durP1;ratioP1;P1;durP2;ratioP2;P2;SDS_P1;SDS_P2;PMS_P1;PMS_P2;Temp;Humidity;BMP_temperature;BMP_pressure;BME280_temperature;BME280_humidity;BME280_pressure;Samples;Min_cycle;Max_cycle;Signal;HPM_P1;HPM_P2
2023/03/21 00:00:56;;;;;;;22.05;12.70;;;9.10;99.90;;;;;;5090352;27;20074;-85
2023/03/21 00:03:22;;;;;;;20.83;13.18;;;9.10;99.90;;;;;;5077331;27;20518;-86
2023/03/21 00:05:52;;;;;;;22.60;12.52;;;9.10;99.90;;;;;;5076786;27;20126;-85
2023/03/21 00:08:23;;;;;;;23.90;11.85;;;9.10;99.90;;;;;;5095013;27;20293;-85
2023/03/21 00:10:57;;;;;;;20.48;11.57;;;9.20;99.90;;;;;;5110307;27;20046;-85
2023/03/21 00:13:25;;;;;;;19.55;11.30;;;9.70;99.90;;;;;;5077944;27;20498;-84
2023/03/21 00:15:53;;;;;;;22.42;11.40;;;9.20;99.90;;;;;;5093866;27;20078;-85
2023/03/21 00:18:21;;;;;;;18.00;11.48;;;9.10;99.90;;;;;;5110673;27;20066;-85
2023/03/21 00:20:58;;;;;;;19.00;11.70;;;9.10;99.90;;;;;;5110926;27;20537;-85
2023/03/21 00:23:28;;;;;;;17.10;10.73;;;9.20;99.90;;;;;;5092935;27;20387;-85
2023/03/21 00:25:54;;;;;;;20.67;10.18;;;9.20;99.90;;;;;;5111465;27;20383;-85
2023/03/21 00:28:20;;;;;;;19.85;11.32;;;9.60;99.90;;;;;;5110780;27;20047;-85
2023/03/21 00:30:46;;;;;;;18.30;10.80;;;9.20;99.90;;;;;;5111119;27;20039;-85
2023/03/21 00:33:12;;;;;;;16.98;9.63;;;9.10;99.90;;;;;;5077597;27;20111;-85
2023/03/21 00:35:41;;;;;;;17.50;10.88;;;9.40;99.90;;;;;;5093692;27;20040;-85
2023/03/21 00:38:07;;;;;;;18.60;10.15;;;9.10;99.90;;;;;;5110878;27;20538;-85
2023/03/21 00:40:33;;;;;;;18.30;9.68;;;9.10;99.90;;;;;;5075454;27;20085;-85
2023/03/21 00:42:59;;;;;;;14.27;9.13;;;9.60;99.90;;;;;;5094148;27;20043;-85
2023/03/21 00:45:24;;;;;;;19.08;9.95;;;10.20;99.90;;;;;;5093074;27;20130;-85
2023/03/21 00:47:50;;;;;;;17.63;9.90;;;9.20;99.90;;;;;;5093486;27;20365;-85
2023/03/21 00:56:23;;;;;;;23.67;11.50;;;9.20;99.90;;;;;;5110704;27;20367;-85
2023/03/21 00:58:50;;;;;;;25.58;11.77;;;9.20;99.90;;;;;;5075574;27;20050;-85
2023/03/21 01:01:16;;;;;;;30.58;12.27;;;9.20;99.90;;;;;;5075572;27;20054;-86
2023/03/21 01:03:41;;;;;;;37.75;13.05;;;8.30;99.90;;;;;;5093297;27;20039;-85
2023/03/21 01:06:12;;;;;;;42.35;14.15;;;9.70;99.90;;;;;;5108686;27;20390;-85
2023/03/21 01:08:42;;;;;;;45.65;14.52;;;9.20;99.90;;;;;;5110340;27;20047;-85
2023/03/21 01:11:12;;;;;;;38.08;13.90;;;9.30;99.90;;;;;;5092224;27;20138;-85
2023/03/21 01:13:38;;;;;;;51.40;15.02;;;9.20;99.90;;;;;;5093229;27;20162;-85
2023/03/21 01:16:06;;;;;;;53.08;15.27;;;9.20;99.90;;;;;;5110095;27;20062;-85
2023/03/21 01:18:32;;;;;;;52.03;16.58;;;9.20;99.90;;;;;;5126690;27;20399;-86
2023/03/21 01:21:00;;;;;;;56.35;17.00;;;9.20;99.90;;;;;;5109923;27;20112;-86
2023/03/21 01:23:27;;;;;;;63.85;18.00;;;9.80;99.90;;;;;;5091874;27;20126;-86
2023/03/21 01:25:55;;;;;;;70.28;18.58;;;9.20;99.90;;;;;;5110476;27;20470;-86
2023/03/21 01:28:24;;;;;;;88.10;21.23;;;9.20;99.90;;;;;;5092109;27;20045;-85
2023/03/21 01:30:50;;;;;;;60.38;18.58;;;9.20;99.90;;;;;;5092400;27;20129;-86
2023/03/21 01:33:18;;;;;;;80.50;19.60;;;9.30;99.90;;;;;;5092475;27;20070;-85
2023/03/21 01:35:45;;;;;;;105.15;22.45;;;9.20;99.90;;;;;;5092077;27;20057;-85
2023/03/21 01:38:11;;;;;;;77.15;19.10;;;9.20;99.90;;;;;;5076380;27;20099;-87
2023/03/21 01:40:38;;;;;;;85.70;20.48;;;9.20;99.90;;;;;;5108404;27;20175;-86
2023/03/21 01:43:11;;;;;;;79.75;19.92;;;9.20;99.90;;;;;;5110341;27;20111;-87
2023/03/21 01:46:08;;;;;;;62.15;19.67;;;9.20;99.90;;;;;;5109050;27;20142;-88
2023/03/21 01:48:39;;;;;;;64.57;18.85;;;9.20;99.90;;;;;;5109057;27;20039;-86
2023/03/21 01:51:05;;;;;;;69.88;19.27;;;9.20;99.90;;;;;;5093689;27;20386;-87
2023/03/21 01:53:34;;;;;;;56.20;18.33;;;9.20;99.90;;;;;;5091117;27;20049;-87
2023/03/21 01:56:05;;;;;;;62.60;17.40;;;9.20;99.90;;;;;;5109412;27;20047;-86
2023/03/21 01:58:32;;;;;;;48.95;17.50;;;9.20;99.90;;;;;;5092420;27;20045;-87
2023/03/21 02:00:58;;;;;;;47.20;16.40;;;9.20;99.90;;;;;;5108539;27;20075;-86
2023/03/21 02:03:28;;;;;;;48.15;15.45;;;9.20;99.90;;;;;;5092472;27;20487;-87
2023/03/21 02:06:05;;;;;;;45.55;15.75;;;9.20;99.90;;;;;;5108782;27;20540;-87
2023/03/21 02:08:32;;;;;;;37.15;15.60;;;9.20;99.90;;;;;;5109525;27;20043;-87
2023/03/21 02:10:58;;;;;;;40.45;15.88;;;9.20;99.90;;;;;;5074678;27;20027;-87
2023/03/21 02:13:24;;;;;;;46.65;16.10;;;8.80;99.90;;;;;;5075792;27;20414;-86
2023/03/21 02:16:15;;;;;;;47.95;16.95;;;9.20;99.90;;;;;;5074638;27;20035;-87
2023/03/21 02:19:01;;;;;;;43.20;16.48;;;9.20;99.90;;;;;;5079762;27;20058;-87
2023/03/21 02:21:45;;;;;;;44.03;17.23;;;9.20;99.90;;;;;;5068363;28;20040;-87
2023/03/21 02:24:35;;;;;;;44.35;17.05;;;9.20;99.90;;;;;;5084011;28;20101;-87
2023/03/21 02:27:14;;;;;;;44.42;16.13;;;9.20;99.90;;;;;;5084404;28;20047;-87
2023/03/21 02:30:04;;;;;;;38.03;16.50;;;9.30;99.90;;;;;;5085762;28;20566;-86
2023/03/21 02:32:55;;;;;;;38.20;15.25;;;9.20;99.90;;;;;;5084392;28;20108;-87
2023/03/21 02:35:56;;;;;;;40.17;15.30;;;9.20;99.90;;;;;;5084299;28;20511;-87
2023/03/21 02:38:25;;;;;;;38.30;16.02;;;9.20;99.90;;;;;;5085081;28;20091;-86
2023/03/21 02:41:08;;;;;;;33.22;15.63;;;9.30;99.90;;;;;;5083739;28;20040;-87
2023/03/21 02:43:52;;;;;;;32.83;16.33;;;9.80;99.90;;;;;;5085118;28;20044;-87
2023/03/21 02:46:24;;;;;;;32.70;14.95;;;9.20;99.90;;;;;;5067523;28;20649;-85
2023/03/21 02:49:06;;;;;;;28.75;11.88;;;9.40;99.90;;;;;;5067300;28;20122;-85
2023/03/21 02:51:34;;;;;;;36.93;16.03;;;9.30;99.90;;;;;;5067874;28;20493;-85
2023/03/21 02:54:04;;;;;;;28.10;14.85;;;9.40;99.90;;;;;;5066748;28;20055;-87
2023/03/21 02:56:32;;;;;;;32.30;15.45;;;9.30;99.90;;;;;;5083944;28;20576;-86
2023/03/21 02:58:59;;;;;;;28.27;15.27;;;9.30;99.90;;;;;;5067590;28;20075;-86
2023/03/21 03:01:25;;;;;;;30.40;15.48;;;9.30;99.90;;;;;;5066967;28;20040;-85
2023/03/21 03:03:51;;;;;;;30.67;15.68;;;9.60;99.90;;;;;;5084551;28;20131;-85
2023/03/21 03:06:47;;;;;;;25.73;14.82;;;9.30;99.90;;;;;;5082989;28;20048;-85
2023/03/21 03:09:54;;;;;;;29.63;15.15;;;9.30;99.90;;;;;;5059251;28;20094;-85
2023/03/21 03:12:36;;;;;;;27.27;14.77;;;9.70;99.90;;;;;;5016784;28;20200;-85
2023/03/21 03:15:40;;;;;;;29.42;15.73;;;9.30;99.90;;;;;;5083824;28;20096;-85
2023/03/21 03:18:11;;;;;;;25.10;14.95;;;9.30;99.90;;;;;;5071294;28;20101;-85
2023/03/21 03:21:19;;;;;;;24.88;14.50;;;9.40;99.90;;;;;;5100046;28;20319;-85
2023/03/21 03:24:03;;;;;;;31.88;15.63;;;9.30;99.90;;;;;;5103834;28;20040;-85
2023/03/21 03:26:46;;;;;;;23.48;14.70;;;9.40;99.90;;;;;;5104216;28;20159;-85
2023/03/21 03:29:16;;;;;;;23.17;15.02;;;9.30;99.90;;;;;;5087340;28;20566;-85
2023/03/21 03:31:50;;;;;;;22.05;13.63;;;9.90;99.90;;;;;;5086270;28;20745;-86
2023/03/21 03:34:20;;;;;;;24.08;15.23;;;9.90;99.90;;;;;;5105077;28;20051;-85
2023/03/21 03:36:55;;;;;;;22.83;14.65;;;9.30;99.90;;;;;;5085461;28;20089;-85
2023/03/21 03:39:42;;;;;;;21.30;14.40;;;9.30;99.90;;;;;;5087476;28;20425;-85
2023/03/21 03:42:15;;;;;;;23.35;15.63;;;10.30;99.90;;;;;;5103281;28;20059;-86
2023/03/21 03:44:40;;;;;;;;;;;9.30;99.90;;;;;;5103760;28;20052;-86
2023/03/21 03:47:15;;;;;;;22.42;13.65;;;9.40;99.90;;;;;;5087663;28;19920;-85
2023/03/21 03:49:50;;;;;;;26.05;14.63;;;9.40;99.90;;;;;;5121584;28;20437;-86
2023/03/21 03:52:20;;;;;;;25.80;15.10;;;9.40;99.90;;;;;;5086722;28;20044;-83
2023/03/21 03:54:50;;;;;;;23.15;14.13;;;9.40;99.90;;;;;;5103560;28;20562;-86
2023/03/21 03:57:16;;;;;;;24.02;15.13;;;10.20;99.90;;;;;;5102998;28;20096;-86
2023/03/21 03:59:43;;;;;;;24.70;14.23;;;9.40;99.90;;;;;;5087128;28;20080;-86
2023/03/21 04:02:09;;;;;;;22.95;13.90;;;9.40;99.90;;;;;;5103003;28;20398;-86
2023/03/21 04:04:36;;;;;;;26.50;15.50;;;9.40;99.90;;;;;;5086986;28;20135;-85
2023/03/21 04:07:02;;;;;;;22.83;14.73;;;9.40;99.90;;;;;;5103253;28;20043;-86
2023/03/21 04:09:29;;;;;;;21.92;13.25;;;9.40;99.90;;;;;;5103185;28;20565;-86
2023/03/21 04:11:56;;;;;;;25.30;15.15;;;9.40;99.90;;;;;;5087070;28;20051;-87
2023/03/21 04:14:22;;;;;;;23.35;13.68;;;9.40;99.90;;;;;;5085863;28;20491;-86
2023/03/21 04:16:49;;;;;;;28.20;13.90;;;9.80;99.90;;;;;;5087169;28;20085;-85
2023/03/21 04:19:18;;;;;;;25.55;14.30;;;9.90;99.90;;;;;;5071747;27;20089;-86
2023/03/21 04:21:45;;;;;;;22.65;12.90;;;9.40;99.90;;;;;;5107443;28;20081;-86
2023/03/21 04:24:12;;;;;;;25.65;13.65;;;9.40;99.90;;;;;;5091202;28;20035;-86
2023/03/21 04:26:38;;;;;;;21.85;13.48;;;9.40;99.90;;;;;;5107369;28;20047;-86
2023/03/21 04:29:04;;;;;;;22.35;13.55;;;9.40;99.90;;;;;;5073866;28;20043;-86
2023/03/21 04:31:32;;;;;;;24.83;13.27;;;10.00;99.90;;;;;;5090008;28;20528;-86
2023/03/21 04:34:00;;;;;;;23.85;14.65;;;9.40;99.90;;;;;;5107906;28;20040;-86
2023/03/21 04:36:29;;;;;;;21.88;13.50;;;9.40;99.90;;;;;;5106461;28;20043;-86
2023/03/21 04:38:59;;;;;;;21.13;12.13;;;9.40;99.90;;;;;;5090946;28;20390;-86
2023/03/21 04:41:28;;;;;;;21.75;12.13;;;10.10;99.90;;;;;;5106795;28;20569;-86
2023/03/21 04:43:55;;;;;;;23.45;13.52;;;9.40;99.90;;;;;;5089528;28;20035;-87
2023/03/21 04:46:21;;;;;;;20.98;12.15;;;9.40;99.90;;;;;;5089823;27;20827;-86
2023/03/21 04:48:47;;;;;;;24.88;12.18;;;9.60;99.90;;;;;;5112126;27;20035;-87
2023/03/21 04:51:14;;;;;;;21.85;13.70;;;9.40;99.90;;;;;;5097660;27;20088;-85
2023/03/21 04:53:43;;;;;;;20.75;11.10;;;9.40;99.90;;;;;;5112503;27;20429;-87
2023/03/21 04:56:10;;;;;;;21.13;10.63;;;9.40;99.90;;;;;;5094126;27;20047;-86
2023/03/21 04:58:36;;;;;;;21.77;10.63;;;9.40;99.90;;;;;;5076757;27;20043;-85
2023/03/21 05:01:04;;;;;;;19.83;9.88;;;9.50;99.90;;;;;;5093675;27;20068;-87
2023/03/21 05:03:33;;;;;;;22.20;10.35;;;9.40;99.90;;;;;;5095789;27;20088;-86
2023/03/21 05:05:59;;;;;;;19.45;10.68;;;9.40;99.90;;;;;;5077037;27;20521;-85
2023/03/21 05:08:25;;;;;;;19.73;10.27;;;9.40;99.90;;;;;;5079116;27;20062;-86
2023/03/21 05:10:51;;;;;;;20.33;10.52;;;9.40;99.90;;;;;;5112775;27;20038;-86
2023/03/21 05:13:17;;;;;;;20.13;10.48;;;9.40;99.90;;;;;;5095543;27;20050;-86
2023/03/21 05:15:43;;;;;;;19.45;10.88;;;9.70;99.90;;;;;;5095670;27;20074;-84
2023/03/21 05:18:11;;;;;;;24.80;10.18;;;9.40;99.90;;;;;;5094135;27;20103;-85
2023/03/21 05:20:41;;;;;;;19.17;10.27;;;9.70;99.90;;;;;;5094191;27;20097;-86
2023/03/21 05:23:09;;;;;;;18.58;10.38;;;9.40;99.90;;;;;;5093444;27;20066;-86
2023/03/21 05:25:37;;;;;;;19.52;9.02;;;9.40;99.90;;;;;;5094408;27;20043;-88
2023/03/21 05:28:04;;;;;;;19.13;9.98;;;9.50;99.90;;;;;;5092787;27;20047;-86
2023/03/21 05:30:30;;;;;;;21.02;10.57;;;9.40;99.90;;;;;;5093930;27;20399;-86
2023/03/21 05:32:56;;;;;;;19.70;10.50;;;9.40;99.90;;;;;;5110205;27;20043;-87
2023/03/21 05:35:22;;;;;;;19.77;11.65;;;9.40;99.90;;;;;;5075300;27;20470;-86
2023/03/21 05:37:47;;;;;;;21.17;12.00;;;9.40;99.90;;;;;;5092660;27;20049;-87
2023/03/21 05:40:13;;;;;;;22.15;11.05;;;10.30;99.90;;;;;;5091835;27;20125;-86
2023/03/21 05:42:39;;;;;;;18.85;11.27;;;9.40;99.90;;;;;;5093054;27;20047;-85
2023/03/21 05:45:05;;;;;;;16.35;10.73;;;10.00;99.90;;;;;;5092146;27;20472;-86
2023/03/21 05:47:31;;;;;;;17.00;10.50;;;9.40;99.90;;;;;;5109565;27;20443;-85
2023/03/21 05:49:56;;;;;;;20.83;11.85;;;9.40;99.90;;;;;;5109596;27;20077;-86
2023/03/21 05:52:23;;;;;;;18.42;11.15;;;9.40;99.90;;;;;;5109091;27;20043;-86
2023/03/21 05:54:49;;;;;;;20.25;11.57;;;9.40;99.90;;;;;;5109724;27;20035;-87
2023/03/21 05:57:15;;;;;;;19.90;11.43;;;9.40;99.90;;;;;;5091500;27;20463;-86
2023/03/21 05:59:40;;;;;;;18.85;12.05;;;9.40;99.90;;;;;;5108578;27;20081;-86
2023/03/21 06:02:06;;;;;;;20.80;11.02;;;9.40;99.90;;;;;;5090847;27;20078;-86
2023/03/21 06:04:32;;;;;;;16.75;10.93;;;9.50;99.90;;;;;;5092137;27;20062;-86
2023/03/21 06:06:57;;;;;;;16.85;9.35;;;8.80;99.90;;;;;;5092179;27;20047;-84
2023/03/21 06:09:24;;;;;;;15.82;9.82;;;9.50;99.90;;;;;;5074630;27;20039;-84
2023/03/21 06:11:52;;;;;;;16.40;10.40;;;10.10;99.90;;;;;;5108651;27;20055;-84
2023/03/21 06:14:19;;;;;;;18.00;9.57;;;9.50;99.90;;;;;;5108274;27;20180;-83
2023/03/21 06:16:45;;;;;;;15.20;9.57;;;9.50;99.90;;;;;;5092620;27;20050;-84
2023/03/21 06:19:11;;;;;;;14.85;10.57;;;9.50;99.90;;;;;;5091295;27;20039;-85
2023/03/21 06:21:37;;;;;;;16.42;9.10;;;9.60;99.90;;;;;;5105179;28;20564;-84
2023/03/21 06:24:03;;;;;;;16.30;9.80;;;9.50;99.90;;;;;;5105209;28;20052;-89
2023/03/21 06:26:29;;;;;;;14.98;9.00;;;9.50;99.90;;;;;;5087936;28;20044;-88
2023/03/21 06:28:55;;;;;;;14.38;8.98;;;9.60;99.90;;;;;;5088551;28;20104;-86
2023/03/21 06:31:25;;;;;;;13.15;8.45;;;9.60;99.90;;;;;;5070458;28;20066;-86
2023/03/21 06:33:51;;;;;;;12.85;8.60;;;10.30;99.90;;;;;;5088616;28;20047;-87
2023/03/21 06:36:18;;;;;;;11.10;7.45;;;9.60;99.90;;;;;;5103962;28;20051;-84
2023/03/21 06:38:43;;;;;;;12.38;8.70;;;9.60;99.90;;;;;;5105293;28;20078;-84
2023/03/21 06:41:09;;;;;;;11.32;7.85;;;10.10;99.90;;;;;;5106334;28;20050;-83
2023/03/21 06:43:35;;;;;;;11.40;8.02;;;9.60;99.90;;;;;;5088043;28;20410;-83
2023/03/21 06:46:02;;;;;;;10.73;8.07;;;10.50;99.90;;;;;;5088035;28;20513;-84
2023/03/21 06:48:28;;;;;;;13.25;9.25;;;9.70;99.90;;;;;;5103865;28;20040;-84
2023/03/21 06:50:55;;;;;;;12.35;8.55;;;9.60;99.90;;;;;;5105525;28;20398;-84
2023/03/21 06:53:23;;;;;;;13.20;9.13;;;9.70;99.90;;;;;;5103327;28;20538;-83
2023/03/21 06:55:53;;;;;;;15.65;9.27;;;9.80;99.90;;;;;;5104777;28;20100;-84
2023/03/21 06:58:19;;;;;;;12.95;8.95;;;9.60;99.90;;;;;;5087351;28;20048;-83
2023/03/21 07:00:45;;;;;;;14.70;9.82;;;9.70;99.90;;;;;;5087274;28;20047;-84
2023/03/21 07:03:11;;;;;;;14.32;8.73;;;10.10;99.90;;;;;;5087996;28;20055;-87
2023/03/21 07:05:38;;;;;;;13.30;9.40;;;10.10;99.90;;;;;;5087136;28;20040;-85
2023/03/21 07:08:05;;;;;;;12.70;9.73;;;9.70;99.90;;;;;;5087785;28;20130;-85
2023/03/21 07:10:31;;;;;;;14.10;10.05;;;9.80;99.90;;;;;;5103650;28;20458;-85
2023/03/21 07:13:00;;;;;;;12.75;9.18;;;10.10;99.90;;;;;;5105087;28;20071;-85
2023/03/21 07:15:26;;;;;;;12.52;9.15;;;9.80;99.90;;;;;;5104419;28;20043;-85
2023/03/21 07:17:52;;;;;;;10.65;8.05;;;9.80;99.90;;;;;;5103839;28;20035;-85
2023/03/21 07:20:18;;;;;;;13.55;9.43;;;10.10;99.90;;;;;;5107019;27;20144;-86
2023/03/21 07:22:44;;;;;;;10.90;8.15;;;9.80;99.90;;;;;;5107116;27;20093;-85
2023/03/21 07:25:10;;;;;;;14.57;9.45;;;10.10;99.90;;;;;;5108505;27;20498;-86
2023/03/21 07:27:36;;;;;;;14.35;9.07;;;9.90;99.90;;;;;;5106499;28;20495;-82
2023/03/21 07:30:03;;;;;;;12.50;8.48;;;9.90;99.90;;;;;;5126817;27;20505;-84
2023/03/21 07:32:32;;;;;;;13.00;8.98;;;9.90;99.90;;;;;;5107077;28;20050;-84
2023/03/21 07:34:59;;;;;;;14.23;8.80;;;9.90;99.90;;;;;;5107112;28;20043;-84
2023/03/21 07:37:25;;;;;;;12.13;9.38;;;9.90;99.90;;;;;;5090909;28;20114;-84
2023/03/21 07:39:52;;;;;;;13.02;9.27;;;9.90;99.90;;;;;;5106511;28;20168;-84
2023/03/21 07:42:18;;;;;;;11.18;8.93;;;9.90;99.90;;;;;;5108051;28;20447;-84
2023/03/21 07:44:44;;;;;;;11.13;8.57;;;9.90;99.90;;;;;;5089647;28;20438;-84
2023/03/21 07:47:09;;;;;;;13.13;8.65;;;10.50;99.90;;;;;;5108111;28;20047;-84
2023/03/21 07:49:36;;;;;;;10.77;7.65;;;10.00;99.90;;;;;;5107281;28;20059;-84
2023/03/21 07:52:03;;;;;;;11.13;8.32;;;10.00;99.90;;;;;;5089993;28;20089;-84
2023/03/21 07:54:29;;;;;;;11.13;7.95;;;10.00;99.90;;;;;;5107383;28;20051;-83
2023/03/21 07:56:55;;;;;;;12.23;7.57;;;10.80;99.90;;;;;;5106355;28;20122;-84
2023/03/21 07:59:22;;;;;;;9.00;7.40;;;10.00;99.90;;;;;;5107929;28;20460;-84
2023/03/21 08:01:47;;;;;;;9.18;7.43;;;10.00;99.90;;;;;;5105988;28;20043;-83
2023/03/21 08:04:13;;;;;;;8.60;6.75;;;10.00;99.90;;;;;;5108122;28;20091;-84
2023/03/21 08:06:39;;;;;;;9.02;6.20;;;10.60;99.90;;;;;;5089423;28;20099;-84
2023/03/21 08:09:05;;;;;;;8.23;5.93;;;10.00;99.90;;;;;;5089934;28;20131;-85
2023/03/21 08:11:31;;;;;;;9.80;6.03;;;10.00;99.90;;;;;;5090186;28;20058;-85
2023/03/21 08:13:58;;;;;;;7.88;5.95;;;10.00;99.90;;;;;;5089441;28;20036;-85
2023/03/21 08:16:24;;;;;;;6.13;5.35;;;10.80;99.90;;;;;;5090634;28;20131;-85
2023/03/21 08:18:50;;;;;;;7.88;6.25;;;10.60;99.90;;;;;;5105784;28;20101;-84
2023/03/21 08:21:16;;;;;;;7.88;6.30;;;10.10;99.90;;;;;;5087041;28;20052;-84
2023/03/21 08:23:41;;;;;;;7.70;5.65;;;10.10;99.90;;;;;;5089291;28;20073;-84
2023/03/21 08:26:08;;;;;;;5.13;4.35;;;10.10;99.90;;;;;;5073525;28;20043;-84
2023/03/21 08:28:35;;;;;;;7.20;5.10;;;10.10;99.90;;;;;;5091023;28;20043;-84
2023/03/21 08:31:07;;;;;;;5.60;4.70;;;10.20;99.90;;;;;;5107061;28;20088;-84
2023/03/21 08:33:32;;;;;;;7.82;5.30;;;10.20;99.90;;;;;;5107779;28;20047;-84
2023/03/21 08:35:59;;;;;;;6.03;4.97;;;10.20;99.90;;;;;;5105932;28;20036;-85
2023/03/21 08:38:28;;;;;;;6.30;4.72;;;10.20;99.90;;;;;;5108133;28;20046;-85
2023/03/21 08:40:55;;;;;;;5.90;4.15;;;10.20;99.90;;;;;;5090165;28;20028;-85
2023/03/21 08:43:21;;;;;;;5.50;4.10;;;10.20;99.90;;;;;;5108520;28;20456;-84
2023/03/21 08:45:48;;;;;;;6.70;4.50;;;10.20;99.90;;;;;;5107416;28;20115;-84
2023/03/21 08:48:14;;;;;;;5.80;4.50;;;10.40;99.90;;;;;;5106149;28;20202;-84
2023/03/21 08:50:40;;;;;;;5.68;3.90;;;11.00;99.90;;;;;;5107448;28;20043;-85
2023/03/21 08:53:05;;;;;;;5.22;4.47;;;10.10;99.90;;;;;;5089084;28;20071;-84
2023/03/21 08:55:32;;;;;;;5.88;3.92;;;10.10;99.90;;;;;;5090490;28;20937;-84
2023/03/21 08:57:58;;;;;;;4.57;3.80;;;10.10;99.90;;;;;;5106075;28;20108;-85
2023/03/21 09:00:24;;;;;;;4.70;3.85;;;10.10;99.90;;;;;;5106538;28;20131;-84
2023/03/21 09:02:51;;;;;;;5.82;3.78;;;10.20;99.90;;;;;;5106773;28;20126;-84
2023/03/21 09:05:17;;;;;;;3.92;3.42;;;10.10;99.90;;;;;;5105857;28;20506;-84
2023/03/21 09:07:44;;;;;;;4.68;3.83;;;10.10;99.90;;;;;;5090179;28;20050;-84
2023/03/21 09:10:15;;;;;;;4.13;3.08;;;10.10;99.90;;;;;;5105777;28;20047;-84
2023/03/21 09:12:42;;;;;;;5.18;3.88;;;10.10;99.90;;;;;;5107163;28;20235;-84
2023/03/21 09:15:10;;;;;;;5.03;4.03;;;10.50;99.90;;;;;;5106342;28;20130;-84
2023/03/21 09:17:41;;;;;;;6.68;4.28;;;10.20;99.90;;;;;;5106721;28;20140;-84
2023/03/21 09:20:17;;;;;;;4.70;3.75;;;10.20;99.90;;;;;;5107955;27;20532;-84
2023/03/21 09:22:46;;;;;;;9.18;3.97;;;10.20;99.90;;;;;;5091933;27;20073;-84
2023/03/21 09:25:14;;;;;;;13.07;5.25;;;10.40;99.90;;;;;;5093701;27;20159;-84
2023/03/21 09:27:39;;;;;;;9.25;4.50;;;10.20;99.90;;;;;;5091306;27;20047;-85
2023/03/21 09:30:07;;;;;;;10.30;4.85;;;10.20;99.90;;;;;;5093265;27;20043;-86
2023/03/21 09:32:33;;;;;;;14.15;6.18;;;10.20;99.90;;;;;;5075724;27;20068;-84
2023/03/21 09:34:59;;;;;;;12.80;5.82;;;10.20;99.90;;;;;;5127425;27;20047;-84
2023/03/21 09:37:25;;;;;;;11.18;6.97;;;10.20;99.90;;;;;;5109841;27;20405;-84
2023/03/21 09:39:51;;;;;;;11.63;6.78;;;10.20;99.90;;;;;;5108275;27;20051;-84
2023/03/21 09:42:44;;;;;;;11.00;6.57;;;10.20;99.90;;;;;;5076014;27;20108;-84
2023/03/21 09:45:28;;;;;;;12.20;7.07;;;10.20;99.90;;;;;;5108743;27;20458;-84
2023/03/21 09:47:55;;;;;;;13.15;8.20;;;10.30;99.90;;;;;;5108858;27;20145;-83
2023/03/21 09:50:51;;;;;;;10.80;7.38;;;10.30;99.90;;;;;;5109706;27;20046;-83
2023/03/21 09:53:37;;;;;;;13.13;7.90;;;10.30;99.90;;;;;;5078810;27;20059;-84
2023/03/21 09:56:05;;;;;;;11.00;6.80;;;10.30;99.90;;;;;;5109497;27;20051;-84
2023/03/21 09:58:59;;;;;;;13.43;8.55;;;10.30;99.90;;;;;;5091939;27;20038;-83
2023/03/21 10:01:34;;;;;;;12.80;8.57;;;10.20;99.90;;;;;;5088621;27;20047;-84
2023/03/21 10:04:10;;;;;;;12.25;7.70;;;10.20;99.90;;;;;;5092570;27;20039;-85
2023/03/21 10:06:40;;;;;;;16.27;8.70;;;10.20;99.90;;;;;;5091625;27;20398;-84
2023/03/21 10:09:23;;;;;;;12.20;8.82;;;10.20;99.90;;;;;;5109308;27;20381;-84
2023/03/21 10:11:57;;;;;;;;;;;10.20;99.90;;;;;;5109379;27;20063;-86
2023/03/21 10:14:34;;;;;;;14.90;9.40;;;10.20;99.90;;;;;;5090700;27;20278;-83
2023/03/21 10:17:32;;;;;;;17.63;10.00;;;10.40;99.90;;;;;;5109427;27;20108;-84
2023/03/21 10:20:15;;;;;;;17.52;9.63;;;9.60;99.90;;;;;;5108420;27;20494;-84
2023/03/21 10:22:42;;;;;;;14.10;9.88;;;10.20;99.90;;;;;;5126025;27;20059;-83
2023/03/21 10:25:15;;;;;;;20.45;11.80;;;10.20;99.90;;;;;;5108905;27;20055;-84
2023/03/21 10:27:41;;;;;;;15.18;10.63;;;10.20;99.90;;;;;;5090973;27;20089;-84
2023/03/21 10:30:17;;;;;;;15.85;9.75;;;10.50;99.90;;;;;;5091690;27;20088;-84
2023/03/21 10:32:43;;;;;;;16.40;10.25;;;10.20;99.90;;;;;;5093165;27;20078;-84
2023/03/21 10:35:12;;;;;;;17.17;10.90;;;10.20;99.90;;;;;;5107899;27;20101;-83
2023/03/21 10:37:38;;;;;;;15.82;10.25;;;10.40;99.90;;;;;;5108372;27;20050;-84
2023/03/21 10:40:06;;;;;;;17.05;10.85;;;10.30;99.90;;;;;;5089977;27;20106;-84
2023/03/21 10:42:34;;;;;;;21.10;10.18;;;10.30;99.90;;;;;;5127879;27;20047;-86
2023/03/21 10:45:00;;;;;;;17.60;10.80;;;10.30;99.90;;;;;;5106750;27;20112;-86
2023/03/21 10:47:32;;;;;;;21.42;10.07;;;10.30;99.90;;;;;;5126960;27;20043;-86
2023/03/21 10:50:05;;;;;;;22.23;10.80;;;10.30;99.90;;;;;;5074959;27;20047;-86
2023/03/21 10:52:32;;;;;;;16.40;11.32;;;10.40;99.90;;;;;;5090652;27;20100;-85
2023/03/21 10:55:21;;;;;;;12.55;9.80;;;10.40;99.90;;;;;;5108962;27;20039;-84
2023/03/21 10:57:51;;;;;;;20.85;10.30;;;10.50;99.90;;;;;;5107049;27;20074;-83
2023/03/21 11:00:21;;;;;;;20.60;10.25;;;11.10;99.90;;;;;;5107873;27;20035;-83
2023/03/21 11:02:50;;;;;;;17.70;10.95;;;10.60;99.90;;;;;;5108036;27;20043;-86
2023/03/21 11:05:24;;;;;;;22.85;10.82;;;10.70;99.90;;;;;;5106837;27;20043;-84
2023/03/21 11:07:58;;;;;;;17.88;10.18;;;10.70;99.90;;;;;;5126546;27;20542;-83
2023/03/21 11:10:36;;;;;;;15.57;10.10;;;10.70;99.90;;;;;;5106532;27;20046;-82
2023/03/21 11:13:15;;;;;;;19.27;10.23;;;10.70;99.90;;;;;;5108078;27;20051;-83
2023/03/21 11:15:52;;;;;;;20.50;10.07;;;10.80;99.90;;;;;;5126409;27;20074;-83
2023/03/21 11:18:24;;;;;;;16.17;10.50;;;10.90;99.90;;;;;;5106710;27;20513;-85
2023/03/21 11:21:02;;;;;;;15.38;10.02;;;10.90;99.90;;;;;;5108280;27;20091;-85
2023/03/21 11:23:31;;;;;;;16.33;9.32;;;11.20;99.90;;;;;;5090317;27;20380;-87
2023/03/21 11:25:59;;;;;;;19.02;9.75;;;11.10;99.90;;;;;;5108104;28;20359;-85
2023/03/21 11:28:32;;;;;;;19.00;8.52;;;11.20;99.90;;;;;;5107338;28;20482;-86
2023/03/21 11:31:00;;;;;;;18.05;8.45;;;11.20;99.90;;;;;;5125697;27;20122;-84
2023/03/21 11:33:31;;;;;;;14.30;7.90;;;11.30;99.90;;;;;;5091476;28;20047;-87
2023/03/21 11:35:58;;;;;;;13.77;7.45;;;11.30;99.90;;;;;;5106138;28;20043;-85
2023/03/21 11:38:38;;;;;;;14.52;7.82;;;11.40;99.90;;;;;;5108602;28;20047;-86
2023/03/21 11:41:05;;;;;;;14.13;7.03;;;11.50;99.90;;;;;;5091168;28;20132;-88
2023/03/21 11:43:36;;;;;;;14.55;8.27;;;11.50;99.90;;;;;;5090407;28;20054;-82
2023/03/21 11:46:05;;;;;;;15.95;8.45;;;11.60;99.90;;;;;;5107790;28;20046;-82
2023/03/21 11:48:40;;;;;;;16.80;7.88;;;11.80;99.90;;;;;;5125032;28;20135;-83
2023/03/21 11:51:14;;;;;;;15.88;7.57;;;11.80;99.90;;;;;;5108092;28;20040;-82
2023/03/21 11:54:13;;;;;;;16.42;7.55;;;11.90;99.90;;;;;;5107406;28;20155;-81
2023/03/21 11:57:01;;;;;;;11.40;7.45;;;12.00;99.90;;;;;;5097407;27;20059;-82
2023/03/21 11:59:59;;;;;;;13.05;7.30;;;12.00;99.90;;;;;;5130839;27;20144;-83
2023/03/21 12:02:53;;;;;;;17.67;7.00;;;12.00;99.90;;;;;;5111452;27;20039;-83
2023/03/21 12:05:37;;;;;;;14.93;7.38;;;12.00;99.90;;;;;;5129393;27;20096;-82
2023/03/21 12:08:25;;;;;;;14.65;6.38;;;12.10;99.90;;;;;;5111857;27;20100;-82
2023/03/21 12:11:11;;;;;;;16.75;6.95;;;12.10;99.90;;;;;;5111153;27;20050;-82
2023/03/21 12:14:11;;;;;;;10.80;7.00;;;12.10;99.90;;;;;;5069344;27;20104;-82
2023/03/21 12:16:40;;;;;;;10.85;6.43;;;12.10;99.90;;;;;;5128330;27;20055;-83
2023/03/21 12:19:32;;;;;;;10.40;6.43;;;12.00;99.90;;;;;;5093806;27;20082;-82
2023/03/21 12:22:04;;;;;;;7.83;3.97;;;11.90;99.90;;;;;;5090096;28;20058;-82
2023/03/21 12:24:55;;;;;;;13.77;6.43;;;11.90;99.90;;;;;;5108333;28;20354;-82
2023/03/21 12:27:55;;;;;;;14.48;7.07;;;11.80;99.90;;;;;;5108064;28;20047;-82
2023/03/21 12:30:54;;;;;;;18.58;7.22;;;11.80;99.90;;;;;;5108907;28;20437;-83
2023/03/21 12:33:51;;;;;;;16.20;7.22;;;11.80;99.90;;;;;;5109317;28;20118;-82
2023/03/21 12:36:28;;;;;;;15.23;6.47;;;11.80;99.90;;;;;;5106966;28;20047;-82
2023/03/21 12:39:09;;;;;;;14.25;6.30;;;11.70;99.90;;;;;;5107311;28;20092;-82
2023/03/21 12:42:08;;;;;;;15.15;6.43;;;11.70;99.90;;;;;;5108813;28;20047;-82
2023/03/21 12:44:48;;;;;;;14.60;6.00;;;11.60;99.90;;;;;;5089096;28;20051;-82
2023/03/21 12:47:20;;;;;;;14.35;6.82;;;11.60;99.90;;;;;;5106954;28;20085;-81
2023/03/21 12:49:56;;;;;;;16.00;6.00;;;11.60;99.90;;;;;;5107134;28;20367;-82
2023/03/21 12:52:33;;;;;;;12.35;6.32;;;11.60;99.90;;;;;;5106805;28;20048;-82
2023/03/21 12:55:06;;;;;;;9.68;5.78;;;11.60;99.90;;;;;;5091092;28;20398;-82
2023/03/21 12:57:38;;;;;;;;;;;11.50;99.90;;;;;;5089823;28;20594;-82
2023/03/21 13:00:12;;;;;;;10.15;5.90;;;11.50;99.90;;;;;;5106875;28;19920;-82
2023/03/21 13:02:48;;;;;;;12.50;5.90;;;11.50;99.90;;;;;;5108258;27;20043;-81
2023/03/21 13:05:36;;;;;;;11.07;6.47;;;11.60;99.90;;;;;;5089363;28;20047;-82